Folsom, CA

8:00 AM PST on January 27, 2015 (GMT -0800)
McClellan | Change Station
CLOSE
Current Station
Airport
Location: Sacramento / Mc Clellan,
Elevation: 75 ft
Nearby Weather Stations

Elev 75 ft 38.67 °N, 121.40 °W | Updated 5 minutes ago

Partly Cloudy
Partly Cloudy
52 °F
Feels Like 52 °F
N
7
Wind Variable Wind from ESE

Today
High -- | Low -- °F
--% Chance of Precip.
Yesterday
High -- | Low -- °F
Precip. -- in
7:14 AM 5:20 PM
First Quarter, 55% visible
Pressure 30.19 in
Visibility 5.0 miles
Clouds Clear
Dew Point 46 °F
Humidity 82%
Rainfall 0.00 in
Snow Depth Not available.
UV 0 out of 12
Pollen 6.00 out of 12
Air Quality Not available.
Flu Activity Not available.
METAR KMCC 271555Z AUTO 11006KT 5SM HZ CLR 11/08 A3019 RMK AO2

More Conditions Fewer Conditions

Pressure 30.19 in
Visibility 5.0 miles
Clouds Clear
Dew Point 46 °F
Humidity 82%
Rainfall 0.00 in
Snow Depth Not available.
UV 0 out of 12
Pollen 6.00 out of 12
Air Quality Not available.
Flu Activity Not available.
METAR KMCC 271555Z AUTO 11006KT 5SM HZ CLR 11/08 A3019 RMK AO2

More Conditions Fewer Conditions

10-Day Weather Forecast

Almanac

Astronomy

Jan. 27, 2015 Rise Set
Actual Time
Civil Twilight
Nautical Twilight
Astronomical Twilight
Moon
Length of Visible Light
Length of Day
Tomorrow will be .
, % of the Moon is Illuminated

Today's Extremes

State Highs State Lows

Community

WunderPhotos

Upload Photos

1,790,704 photos uploaded!

WunderBlogs® & News

Nearby

Air Quality

  Air Quality AQ Index Pollutant
Not available.

Snow Depth

Station Depth Elevation

Earthquake Activity

City Distance Mag. Time & Date
Minimum magnitude displayed is 2.5.

Coastal Water Temperatures

Place Temperature

Nearby Weather Stations